createdAt,value
2018-02-06T00:00:07.311Z,19.09
2018-02-06T00:02:11.154Z,19.11
2018-02-06T00:04:15.317Z,19.09
2018-02-06T00:06:19.132Z,19.10
2018-02-06T00:08:22.881Z,19.02
2018-02-06T00:10:26.924Z,19.14
2018-02-06T00:12:30.853Z,19.06
2018-02-06T00:14:34.661Z,19.08
2018-02-06T00:16:38.758Z,19.10
2018-02-06T00:18:42.513Z,19.10
2018-02-06T00:20:46.374Z,19.03
2018-02-06T00:22:51.452Z,19.01
2018-02-06T00:24:55.570Z,19.06
2018-02-06T00:26:59.368Z,19.02
2018-02-06T00:29:03.198Z,19.06
2018-02-06T00:31:07.755Z,19.04
2018-02-06T00:33:11.835Z,18.96
2018-02-06T00:35:15.730Z,18.95
2018-02-06T00:37:19.594Z,19.00
2018-02-06T00:39:23.634Z,18.86
2018-02-06T00:41:27.516Z,18.94
2018-02-06T00:43:31.370Z,19.04
2018-02-06T00:45:35.223Z,18.91
2018-02-06T00:47:39.655Z,18.90
2018-02-06T00:49:43.560Z,19.03
2018-02-06T00:51:47.585Z,19.00
2018-02-06T00:53:51.493Z,18.96
2018-02-06T00:55:55.546Z,18.85
2018-02-06T00:57:59.554Z,18.96
2018-02-06T01:00:03.592Z,18.90
2018-02-06T01:02:08.037Z,18.86
2018-02-06T01:04:12.262Z,18.81
2018-02-06T01:06:16.590Z,18.89
2018-02-06T01:08:20.379Z,18.92
2018-02-06T01:10:28.926Z,18.94
2018-02-06T01:12:32.709Z,18.99
2018-02-06T01:14:36.607Z,18.91
2018-02-06T01:16:40.460Z,18.86
2018-02-06T01:18:44.726Z,19.01
2018-02-06T01:20:48.910Z,18.98
2018-02-06T01:22:52.996Z,18.89
2018-02-06T01:24:56.877Z,18.91
2018-02-06T01:27:01.480Z,19.01
2018-02-06T01:29:05.803Z,18.97
2018-02-06T01:31:10.103Z,18.94
2018-02-06T01:33:14.236Z,18.92
2018-02-06T01:35:18.292Z,19.06
2018-02-06T01:37:22.165Z,18.95
2018-02-06T01:39:25.981Z,18.90
2018-02-06T01:41:29.984Z,18.88
2018-02-06T01:43:34.537Z,18.86
2018-02-06T01:45:38.706Z,18.88
2018-02-06T01:47:44.852Z,18.88
2018-02-06T01:49:57.836Z,18.89
2018-02-06T01:52:03.267Z,18.93
2018-02-06T01:54:07.369Z,18.75
2018-02-06T01:56:11.917Z,18.86
2018-02-06T01:58:15.997Z,18.84
2018-02-06T02:00:19.801Z,18.82
2018-02-06T02:02:23.564Z,18.85
2018-02-06T02:04:28.139Z,18.84
2018-02-06T02:06:32.279Z,18.85
2018-02-06T02:08:36.572Z,18.85
2018-02-06T02:10:41.387Z,18.97
2018-02-06T02:12:45.275Z,18.86
2018-02-06T02:14:49.173Z,18.72
2018-02-06T02:16:53.023Z,18.81
2018-02-06T02:18:57.868Z,18.98
2018-02-06T02:21:02.104Z,18.95
2018-02-06T02:23:06.296Z,18.88
2018-02-06T02:25:11.713Z,18.77
2018-02-06T02:27:15.706Z,18.86
2018-02-06T02:29:19.885Z,18.99
2018-02-06T02:31:23.762Z,18.84
2018-02-06T02:33:27.941Z,18.96
2018-02-06T02:35:32.079Z,18.88
2018-02-06T02:37:36.733Z,18.87
2018-02-06T02:39:40.689Z,18.86
2018-02-06T04:39:39.854Z,18.67
2018-02-06T04:41:43.889Z,18.83
2018-02-06T04:43:48.453Z,18.80
2018-02-06T04:45:52.512Z,18.70
2018-02-06T04:47:56.401Z,18.73
2018-02-06T04:50:01.089Z,18.76
2018-02-06T04:52:05.409Z,18.81
2018-02-06T04:54:09.396Z,18.77
2018-02-06T04:56:13.605Z,18.84
2018-02-06T04:58:17.635Z,18.87
2018-02-06T05:00:22.194Z,18.79
2018-02-06T05:02:26.459Z,18.67
2018-02-06T05:04:30.682Z,18.86
2018-02-06T05:06:34.421Z,18.85
2018-02-06T05:08:38.497Z,18.74
2018-02-06T05:10:42.253Z,18.78
2018-02-06T05:12:46.000Z,18.70
2018-02-06T05:14:49.757Z,18.84
2018-02-06T05:16:53.807Z,18.88
2018-02-06T05:18:58.172Z,18.77
2018-02-06T05:21:02.024Z,18.72
2018-02-06T05:23:05.988Z,18.85
2018-02-06T05:25:10.485Z,18.83
2018-02-06T05:27:15.870Z,18.81
2018-02-06T05:29:20.339Z,18.81
2018-02-06T05:31:24.102Z,18.71
2018-02-06T05:33:28.642Z,18.75
2018-02-06T05:35:32.780Z,18.67
2018-02-06T05:37:37.196Z,18.79
2018-02-06T05:39:41.396Z,18.73
2018-02-06T05:41:45.478Z,18.75
2018-02-06T05:43:49.637Z,18.67
2018-02-06T05:45:53.869Z,18.66
2018-02-06T05:47:57.710Z,18.81
2018-02-06T05:50:02.384Z,18.78
2018-02-06T05:52:06.134Z,18.75
2018-02-06T05:54:09.887Z,18.78
2018-02-06T05:56:13.941Z,18.77
2018-02-06T05:58:18.026Z,18.74
2018-02-06T06:00:22.225Z,18.79
2018-02-06T06:02:26.231Z,18.72
2018-02-06T06:04:30.062Z,18.76
2018-02-06T06:06:34.398Z,18.83
2018-02-06T06:08:38.459Z,18.85
2018-02-06T06:10:42.468Z,18.70
2018-02-06T06:12:46.387Z,18.90
2018-02-06T06:14:50.474Z,18.82
2018-02-06T06:16:54.479Z,18.81
2018-02-06T06:18:58.295Z,18.78
2018-02-06T06:21:02.419Z,18.79
2018-02-06T06:23:06.324Z,18.85
2018-02-06T06:25:10.210Z,18.88
2018-02-06T06:27:14.728Z,18.66
2018-02-06T06:29:19.068Z,18.80
2018-02-06T06:31:23.048Z,18.77
2018-02-06T06:33:26.882Z,18.77
2018-02-06T06:35:31.456Z,18.66
2018-02-06T06:37:35.314Z,18.79
2018-02-06T06:39:39.191Z,18.72
2018-02-06T06:41:43.284Z,18.83
2018-02-06T06:43:47.074Z,18.76
2018-02-06T06:45:51.005Z,18.77
2018-02-06T06:47:55.201Z,18.85
2018-02-06T06:49:59.881Z,18.84
2018-02-06T06:52:04.042Z,18.85
2018-02-06T06:54:07.880Z,18.84
2018-02-06T06:56:12.627Z,18.75
2018-02-06T06:58:16.749Z,18.75
2018-02-06T07:00:20.846Z,18.72
2018-02-06T07:02:25.527Z,18.75
2018-02-06T07:04:29.980Z,18.75
2018-02-06T07:06:33.788Z,18.78
2018-02-06T07:08:37.571Z,18.81
2018-02-06T07:10:41.598Z,18.79
2018-02-06T07:12:45.368Z,18.76
2018-02-06T07:14:49.523Z,18.75
2018-02-06T07:16:53.657Z,18.80
2018-02-06T07:18:57.542Z,18.74
2018-02-06T07:21:01.322Z,18.76
2018-02-06T07:23:05.308Z,18.68
2018-02-06T07:25:09.433Z,18.75
2018-02-06T07:27:13.383Z,18.68
2018-02-06T07:29:17.441Z,18.68
2018-02-06T07:31:21.845Z,18.73
2018-02-06T07:33:25.977Z,18.86
2018-02-06T07:35:29.783Z,18.82
2018-02-06T07:37:33.866Z,18.67
2018-02-06T07:39:38.226Z,18.77
2018-02-06T07:41:42.064Z,18.76
2018-02-06T07:43:45.855Z,18.77
2018-02-06T07:45:49.625Z,18.87
2018-02-06T07:47:53.802Z,18.84
2018-02-06T07:49:57.565Z,18.78
2018-02-06T07:52:01.404Z,18.82
2018-02-06T07:54:05.475Z,18.89
2018-02-06T07:56:11.249Z,18.84
2018-02-06T07:58:15.056Z,18.85
2018-02-06T08:00:19.095Z,18.90
2018-02-06T08:02:23.046Z,18.86
2018-02-06T08:04:26.899Z,18.87
2018-02-06T08:06:31.179Z,18.83
2018-02-06T08:08:35.141Z,18.91
2018-02-06T08:10:39.096Z,18.94
2018-02-06T08:12:43.452Z,18.89
2018-02-06T08:14:47.367Z,18.84
2018-02-06T08:16:51.243Z,18.91
2018-02-06T08:18:55.444Z,18.89
2018-02-06T08:20:59.294Z,18.97
2018-02-06T08:23:03.271Z,19.02
2018-02-06T08:25:07.779Z,18.98
2018-02-06T08:27:12.558Z,19.02
2018-02-06T08:29:16.491Z,19.01
2018-02-06T08:31:22.018Z,19.07
2018-02-06T08:33:26.691Z,19.03
2018-02-06T08:35:30.577Z,19.02
2018-02-06T08:37:37.786Z,19.01
2018-02-06T08:43:57.859Z,19.18
2018-02-06T08:46:01.718Z,19.21
2018-02-06T08:48:05.669Z,19.21
2018-02-06T08:50:09.955Z,19.29
2018-02-06T08:52:13.782Z,19.27
2018-02-06T08:54:17.585Z,19.33
2018-02-06T08:56:21.672Z,19.23
2018-02-06T08:58:25.755Z,19.42
2018-02-06T09:00:29.981Z,19.40
2018-02-06T09:02:34.347Z,19.19
2018-02-06T09:04:38.114Z,19.33
2018-02-06T09:06:41.971Z,19.29
2018-02-06T09:08:46.149Z,19.34
2018-02-06T09:10:49.917Z,19.40
2018-02-06T09:12:53.706Z,19.33
2018-02-06T09:14:59.125Z,19.35
2018-02-06T09:17:02.969Z,19.42
2018-02-06T09:19:06.785Z,19.37
2018-02-06T09:21:10.912Z,19.42
2018-02-06T09:23:14.827Z,19.30
2018-02-06T09:25:18.614Z,19.46
2018-02-06T09:27:22.745Z,19.58
2018-02-06T09:29:26.688Z,19.61
2018-02-06T09:31:30.458Z,19.44
2018-02-06T09:33:34.678Z,19.54
2018-02-06T09:35:38.519Z,19.31
2018-02-06T09:37:42.313Z,19.33
2018-02-06T09:39:46.924Z,19.31
2018-02-06T09:41:50.810Z,19.48
2018-02-06T09:43:54.612Z,19.46
2018-02-06T09:45:59.014Z,19.50
2018-02-06T09:48:02.793Z,19.39
2018-02-06T09:50:06.612Z,19.31
2018-02-06T09:52:10.778Z,19.52
2018-02-06T09:54:14.538Z,19.23
2018-02-06T09:56:18.576Z,19.33
2018-02-06T09:58:22.805Z,19.47
2018-02-06T10:00:26.666Z,19.16
2018-02-06T10:02:30.458Z,19.21
2018-02-06T10:04:34.643Z,19.36
2018-02-06T10:06:38.503Z,19.21
2018-02-06T10:08:42.421Z,19.31
2018-02-06T10:10:46.488Z,19.22
2018-02-06T10:12:50.333Z,19.32
2018-02-06T10:14:54.098Z,19.40
2018-02-06T10:16:58.313Z,19.38
2018-02-06T10:19:02.148Z,19.35
2018-02-06T10:21:05.915Z,19.43
2018-02-06T10:23:10.701Z,19.46
2018-02-06T10:25:14.468Z,19.23
2018-02-06T10:27:18.356Z,19.31
2018-02-06T10:29:22.795Z,19.38
2018-02-06T10:31:26.677Z,19.37
2018-02-06T10:33:31.115Z,19.16
2018-02-06T10:35:35.563Z,19.19
2018-02-06T10:37:39.381Z,19.28
2018-02-06T10:39:43.285Z,19.30
2018-02-06T10:41:51.373Z,19.23
2018-02-06T10:43:55.212Z,19.09
2018-02-06T10:45:59.078Z,19.31
2018-02-06T10:48:03.381Z,19.44
2018-02-06T10:50:07.200Z,19.46
2018-02-06T10:52:10.998Z,19.32
2018-02-06T10:54:15.299Z,19.45
2018-02-06T10:56:19.056Z,19.41
2018-02-06T10:58:22.855Z,19.23
2018-02-06T11:00:42.414Z,19.16
2018-02-06T11:02:46.227Z,19.18
2018-02-06T11:04:50.086Z,19.12
2018-02-06T11:06:54.373Z,19.17
2018-02-06T11:08:58.242Z,19.03
2018-02-06T11:11:02.266Z,19.14
2018-02-06T11:13:06.394Z,19.39
2018-02-06T11:15:10.337Z,19.31
2018-02-06T11:17:14.060Z,19.42
2018-02-06T11:19:18.303Z,19.48
2018-02-06T11:21:22.100Z,19.61
2018-02-06T11:23:25.862Z,19.47
2018-02-06T11:25:30.117Z,19.49
2018-02-06T11:27:33.876Z,19.30
2018-02-06T11:29:37.625Z,19.26
2018-02-06T11:31:41.666Z,19.32
2018-02-06T11:33:45.794Z,19.52
2018-02-06T11:35:49.590Z,19.58
2018-02-06T11:37:54.056Z,19.43
2018-02-06T11:39:57.854Z,19.55
2018-02-06T11:42:01.641Z,19.47
2018-02-06T11:44:05.894Z,19.33
2018-02-06T11:46:09.710Z,19.44
2018-02-06T11:48:13.455Z,19.55
2018-02-06T11:50:17.857Z,19.52
2018-02-06T11:52:21.642Z,19.54
2018-02-06T11:54:25.409Z,19.53
2018-02-06T11:56:29.502Z,19.57
2018-02-06T11:58:33.513Z,19.50
2018-02-06T12:00:37.369Z,19.57
2018-02-06T12:02:41.581Z,19.63
2018-02-06T12:04:45.504Z,19.60
2018-02-06T12:06:49.284Z,19.61
2018-02-06T12:08:53.412Z,19.46
2018-02-06T12:10:57.222Z,19.60
2018-02-06T12:13:00.991Z,19.53
2018-02-06T12:15:05.377Z,19.55
2018-02-06T12:17:09.186Z,19.49
2018-02-06T12:19:12.976Z,19.64
2018-02-06T12:21:17.049Z,19.71
2018-02-06T12:23:20.861Z,19.82
2018-02-06T12:25:24.686Z,19.66
2018-02-06T12:27:28.697Z,19.59
2018-02-06T12:29:32.512Z,19.66
2018-02-06T12:31:36.489Z,19.80
2018-02-06T12:33:40.524Z,19.87
2018-02-06T12:35:45.090Z,19.82
2018-02-06T12:37:48.885Z,19.83
2018-02-06T12:39:57.702Z,19.78
2018-02-06T12:42:01.828Z,19.85
2018-02-06T12:44:05.757Z,19.84
2018-02-06T12:46:10.211Z,19.99
2018-02-06T12:48:14.254Z,19.86
2018-02-06T12:50:18.084Z,19.95
2018-02-06T12:52:22.353Z,19.83
2018-02-06T12:54:26.287Z,19.74
2018-02-06T12:56:30.126Z,19.77
2018-02-06T12:58:34.261Z,19.77
2018-02-06T13:00:38.027Z,19.76
2018-02-06T13:02:41.818Z,19.79
2018-02-06T13:04:47.412Z,19.86
2018-02-06T13:06:51.490Z,19.79
2018-02-06T13:08:55.279Z,19.91
2018-02-06T13:10:59.379Z,20.00
2018-02-06T13:13:03.660Z,19.91
2018-02-06T13:15:07.462Z,19.99
2018-02-06T13:17:11.932Z,19.93
2018-02-06T13:19:15.919Z,19.91
2018-02-06T13:23:27.969Z,19.96
2018-02-06T13:25:31.717Z,20.01
2018-02-06T13:27:35.572Z,20.01
2018-02-06T13:29:39.596Z,20.01
2018-02-06T13:31:43.386Z,19.97
2018-02-06T13:33:47.172Z,20.00
2018-02-06T13:35:51.248Z,20.01
2018-02-06T13:37:55.036Z,19.98
2018-02-06T13:39:58.881Z,20.01
2018-02-06T13:42:02.972Z,19.99
2018-02-06T13:44:06.742Z,20.02
2018-02-06T13:46:10.532Z,20.08
2018-02-06T13:49:38.722Z,20.01
2018-02-06T13:51:42.505Z,19.97
2018-02-06T13:53:46.554Z,20.03
2018-02-06T13:55:50.356Z,19.98
2018-02-06T13:57:54.115Z,20.03
2018-02-06T13:59:58.125Z,20.00
2018-02-06T14:02:01.941Z,19.96
2018-02-06T14:04:05.730Z,19.93
2018-02-06T14:06:09.877Z,19.94
2018-02-06T14:08:14.305Z,19.89
2018-02-06T14:10:18.108Z,19.92
2018-02-06T14:12:22.215Z,19.97
2018-02-06T14:14:26.116Z,19.84
2018-02-06T14:16:30.124Z,19.90
2018-02-06T14:18:35.444Z,19.89
2018-02-06T14:20:40.430Z,19.82
2018-02-06T14:22:44.368Z,19.71
2018-02-06T14:24:48.441Z,19.86
2018-02-06T14:26:52.508Z,19.83
2018-02-06T14:28:56.421Z,19.88
2018-02-06T14:31:00.595Z,19.88
2018-02-06T14:33:04.702Z,19.94
2018-02-06T14:35:08.609Z,19.82
2018-02-06T14:37:12.756Z,19.98
2018-02-06T14:39:16.573Z,19.97
2018-02-06T14:41:20.536Z,20.01
2018-02-06T14:43:28.763Z,19.96
2018-02-06T14:45:33.054Z,20.06
2018-02-06T14:47:36.892Z,20.00
2018-02-06T14:49:41.048Z,20.02
2018-02-06T14:51:44.834Z,20.08
2018-02-06T14:53:48.632Z,19.97
2018-02-06T14:55:52.902Z,20.02
2018-02-06T14:57:56.707Z,20.02
2018-02-06T15:00:00.661Z,20.02
2018-02-06T15:02:04.829Z,19.95
2018-02-06T15:04:08.586Z,19.89
2018-02-06T15:06:12.461Z,19.88
2018-02-06T15:08:16.581Z,19.84
2018-02-06T15:10:20.376Z,19.82
2018-02-06T15:12:24.175Z,19.88
2018-02-06T15:14:28.284Z,19.79
2018-02-06T15:16:32.066Z,19.82
2018-02-06T15:18:35.902Z,19.84
2018-02-06T15:20:40.054Z,19.87
2018-02-06T15:22:44.057Z,19.86
2018-02-06T15:24:47.884Z,19.81
2018-02-06T15:26:52.344Z,19.82
2018-02-06T15:28:56.127Z,19.80
2018-02-06T15:30:59.999Z,19.77
2018-02-06T15:33:04.529Z,19.71
2018-02-06T15:35:08.325Z,19.72
2018-02-06T15:37:12.153Z,19.72
2018-02-06T15:39:16.273Z,19.72
2018-02-06T15:41:20.449Z,19.72
2018-02-06T15:43:24.325Z,19.92
2018-02-06T15:45:28.550Z,19.86
2018-02-06T15:47:32.425Z,19.86
2018-02-06T15:49:36.215Z,19.92
2018-02-06T15:51:41.013Z,19.90
2018-02-06T15:53:44.961Z,19.86
2018-02-06T15:55:48.739Z,19.87
2018-02-06T15:57:53.001Z,19.82
2018-02-06T15:59:56.730Z,19.83
2018-02-06T16:02:00.661Z,19.83
2018-02-06T16:04:04.784Z,19.83
2018-02-06T16:06:08.648Z,19.80
2018-02-06T16:08:12.421Z,19.80
2018-02-06T16:10:16.515Z,19.82
2018-02-06T16:12:20.306Z,19.81
2018-02-06T16:14:24.055Z,19.77
2018-02-06T16:16:28.190Z,19.71
2018-02-06T16:18:31.966Z,19.69
2018-02-06T16:20:35.736Z,19.68
2018-02-06T16:22:39.957Z,19.57
2018-02-06T16:24:43.745Z,19.55
2018-02-06T16:26:47.525Z,19.53
2018-02-06T16:28:51.761Z,19.54
2018-02-06T16:30:55.576Z,19.49
2018-02-06T16:32:59.365Z,19.52
2018-02-06T16:35:03.639Z,19.43
2018-02-06T16:37:07.454Z,19.54
2018-02-06T16:39:11.242Z,19.49
2018-02-06T16:41:15.576Z,19.51
2018-02-06T16:43:19.320Z,19.51
2018-02-06T16:45:23.124Z,19.53
2018-02-06T16:47:27.209Z,19.54
2018-02-06T16:49:30.998Z,19.59
2018-02-06T16:51:35.322Z,19.64
2018-02-06T16:53:39.423Z,19.64
2018-02-06T16:57:54.117Z,19.65
2018-02-06T16:59:58.232Z,19.56
2018-02-06T17:02:02.528Z,19.59
2018-02-06T17:04:06.639Z,19.62
2018-02-06T17:06:10.872Z,19.57
2018-02-06T17:08:14.894Z,19.62
2018-02-06T17:10:18.744Z,19.59
2018-02-06T17:12:22.997Z,19.60
2018-02-06T17:14:26.837Z,19.56
2018-02-06T17:16:31.032Z,19.61
2018-02-06T17:18:35.485Z,19.66
2018-02-06T17:20:39.616Z,19.78
2018-02-06T17:22:43.510Z,19.86
2018-02-06T17:24:48.355Z,19.73
2018-02-06T17:26:52.661Z,19.86
2018-02-06T17:28:56.508Z,19.84
2018-02-06T17:31:01.311Z,19.70
2018-02-06T17:33:05.128Z,19.77
2018-02-06T17:35:17.620Z,19.78
2018-02-06T17:37:21.895Z,19.86
2018-02-06T17:39:25.979Z,19.82
2018-02-06T17:41:31.982Z,19.80
2018-02-06T17:43:36.067Z,19.78
2018-02-06T17:45:40.026Z,19.79
2018-02-06T17:47:45.339Z,19.70
2018-02-06T17:49:49.429Z,19.66
2018-02-06T17:51:53.201Z,19.60
2018-02-06T17:53:57.388Z,19.60
2018-02-06T17:56:02.396Z,19.61
2018-02-06T17:58:06.209Z,19.74
2018-02-06T18:00:10.017Z,19.66
2018-02-06T18:02:14.094Z,19.82
2018-02-06T18:04:17.905Z,19.78
2018-02-06T18:06:21.885Z,19.74
2018-02-06T18:08:26.098Z,19.81
2018-02-06T18:10:29.912Z,19.81
2018-02-06T18:12:33.766Z,19.74
2018-02-06T18:14:37.911Z,19.79
2018-02-06T18:16:41.770Z,19.89
2018-02-06T18:18:45.570Z,19.83
2018-02-06T18:20:49.919Z,19.88
2018-02-06T18:22:53.748Z,19.97
2018-02-06T18:24:57.716Z,19.88
2018-02-06T18:27:02.129Z,19.99
2018-02-06T18:29:05.906Z,20.03
2018-02-06T18:31:09.736Z,20.05
2018-02-06T18:33:14.158Z,20.00
2018-02-06T18:35:18.055Z,20.10
2018-02-06T18:37:22.124Z,19.94
2018-02-06T18:39:26.252Z,19.88
2018-02-06T18:41:30.068Z,20.09
2018-02-06T18:43:35.405Z,20.28
2018-02-06T18:45:39.490Z,20.22
2018-02-06T18:47:43.476Z,20.12
2018-02-06T18:49:47.281Z,20.18
2018-02-06T18:51:51.450Z,20.17
2018-02-06T18:53:55.254Z,20.06
2018-02-06T18:55:59.157Z,20.11
2018-02-06T18:58:03.229Z,20.26
2018-02-06T19:00:07.114Z,20.15
2018-02-06T19:02:11.376Z,20.15
2018-02-06T19:04:15.498Z,20.20
2018-02-06T19:06:19.323Z,20.11
2018-02-06T19:08:23.561Z,20.18
2018-02-06T19:10:28.053Z,20.23
2018-02-06T19:12:31.900Z,20.30
2018-02-06T19:14:36.358Z,20.29
2018-02-06T19:16:40.471Z,20.20
2018-02-06T19:18:44.310Z,20.34
2018-02-06T19:20:52.962Z,20.46
2018-02-06T19:22:57.405Z,20.37
2018-02-06T19:25:01.265Z,20.24
2018-02-06T19:27:05.171Z,20.31
2018-02-06T19:29:09.523Z,20.39
2018-02-06T19:31:13.400Z,20.38
2018-02-06T19:33:17.230Z,20.42
2018-02-06T19:35:21.811Z,20.38
2018-02-06T19:37:25.602Z,20.28
2018-02-06T19:39:29.353Z,20.44
2018-02-06T19:41:34.001Z,20.46
2018-02-06T19:43:37.834Z,20.48
2018-02-06T19:45:42.172Z,20.47
2018-02-06T19:47:46.343Z,20.38
2018-02-06T19:49:50.166Z,20.32
2018-02-06T19:51:53.963Z,20.32
2018-02-06T19:53:58.547Z,20.24
2018-02-06T19:56:03.229Z,20.31
2018-02-06T19:58:07.356Z,20.43
2018-02-06T20:00:11.475Z,20.36
2018-02-06T20:02:15.625Z,20.47
2018-02-06T20:04:19.606Z,20.52
2018-02-06T20:06:24.034Z,20.48
2018-02-06T20:08:27.904Z,20.51
2018-02-06T20:10:32.061Z,20.45
2018-02-06T20:12:36.126Z,20.42
2018-02-06T20:48:36.986Z,20.41
2018-02-06T20:50:40.746Z,20.38
2018-02-06T20:52:44.718Z,20.40
2018-02-06T20:54:49.154Z,20.37
2018-02-06T20:56:52.915Z,20.36
2018-02-06T20:58:56.774Z,20.29
2018-02-06T21:01:00.899Z,20.45
2018-02-06T21:03:11.077Z,20.51
2018-02-06T21:05:15.350Z,20.50
2018-02-06T21:07:19.463Z,20.34
2018-02-06T21:09:23.679Z,20.42
2018-02-06T21:11:27.728Z,20.52
2018-02-06T21:13:37.139Z,20.55
2018-02-06T21:15:41.120Z,20.56
2018-02-06T21:17:45.169Z,20.52
2018-02-06T21:19:49.864Z,20.57
2018-02-06T21:21:53.678Z,20.63
2018-02-06T21:23:57.570Z,20.59
2018-02-06T21:26:01.707Z,20.53
2018-02-06T21:28:06.194Z,20.64
2018-02-06T21:30:10.724Z,20.65
2018-02-06T21:32:14.825Z,20.52
2018-02-06T21:34:18.765Z,20.46
2018-02-06T21:36:22.757Z,20.45
2018-02-06T21:38:27.452Z,20.34
2018-02-06T21:40:31.330Z,20.49
2018-02-06T21:42:35.443Z,20.54
2018-02-06T21:44:39.537Z,20.53
2018-02-06T21:46:51.866Z,20.54
2018-02-06T21:48:55.740Z,20.55
2018-02-06T21:51:05.307Z,20.51
2018-02-06T21:53:23.976Z,20.61
2018-02-06T21:55:27.955Z,20.41
2018-02-06T21:57:32.369Z,20.49
2018-02-06T21:59:36.334Z,20.58
2018-02-06T22:01:40.175Z,20.56
2018-02-06T22:03:44.950Z,20.61
2018-02-06T22:05:49.055Z,20.58
2018-02-06T22:10:01.745Z,20.59
2018-02-06T22:12:06.046Z,20.65
2018-02-06T22:14:10.384Z,20.53
2018-02-06T22:16:14.853Z,20.64
2018-02-06T22:18:18.646Z,20.56
2018-02-06T22:20:22.834Z,20.43
2018-02-06T22:22:27.389Z,20.29
2018-02-06T22:24:31.772Z,20.25
2018-02-06T22:26:35.989Z,20.20
2018-02-06T22:28:40.094Z,20.19
2018-02-06T22:30:44.044Z,20.15
2018-02-06T22:32:47.960Z,20.14
2018-02-06T22:34:52.465Z,20.12
2018-02-06T22:36:56.378Z,20.06
2018-02-06T22:39:01.133Z,20.02
2018-02-06T22:41:05.396Z,20.00
2018-02-06T22:43:09.168Z,20.03
2018-02-06T22:45:13.076Z,19.92
2018-02-06T22:47:17.648Z,19.94
2018-02-06T22:49:21.700Z,19.88
2018-02-06T22:51:25.528Z,19.90
2018-02-06T22:53:29.617Z,19.87
2018-02-06T22:55:33.535Z,19.88
2018-02-06T22:57:37.348Z,19.82
2018-02-06T22:59:41.478Z,19.81
2018-02-06T23:01:45.300Z,19.79
2018-02-06T23:03:49.045Z,19.75
2018-02-06T23:05:53.202Z,19.80
2018-02-06T23:07:56.985Z,19.80
2018-02-06T23:10:06.638Z,19.85
2018-02-06T23:12:11.140Z,19.84
2018-02-06T23:14:15.066Z,19.77
2018-02-06T23:16:18.909Z,19.82
2018-02-06T23:18:23.443Z,19.74
2018-02-06T23:20:27.578Z,19.74
2018-02-06T23:22:31.789Z,19.71
2018-02-06T23:24:36.107Z,19.70
2018-02-06T23:26:39.897Z,19.56
2018-02-06T23:28:43.721Z,19.66
2018-02-06T23:30:48.085Z,19.58
2018-02-06T23:32:51.950Z,19.67
2018-02-06T23:34:55.692Z,19.63
2018-02-06T23:36:59.782Z,19.63
2018-02-06T23:39:03.578Z,19.64
2018-02-06T23:41:07.333Z,19.58
2018-02-06T23:43:11.653Z,19.58
2018-02-06T23:45:15.914Z,19.61
2018-02-06T23:47:19.978Z,19.56
2018-02-06T23:49:24.277Z,19.53
2018-02-06T23:51:28.057Z,19.61
2018-02-06T23:53:31.814Z,19.59
2018-02-06T23:55:36.166Z,19.53
2018-02-06T23:57:40.181Z,19.53
2018-02-06T23:59:44.287Z,19.52
